Time;durP1;ratioP1;P1;durP2;ratioP2;P2;SDS_P1;SDS_P2;PMS_P1;PMS_P2;Temp;Humidity;BMP_temperature;BMP_pressure;BME280_temperature;BME280_humidity;BME280_pressure;Samples;Min_cycle;Max_cycle;Signal;HPM_P1;HPM_P2
2021/05/09 00:01:06;;;;;;;4.55;1.02;;;;;;;16.22;48.95;101184.03;5033459;28;20524;-79
2021/05/09 00:03:55;;;;;;;4.47;1.08;;;;;;;16.21;48.64;101180.47;5034307;28;20048;-80
2021/05/09 00:06:59;;;;;;;9.05;1.08;;;;;;;16.14;49.17;101190.44;5060891;22;20056;-80
2021/05/09 00:09:44;;;;;;;3.35;1.08;;;;;;;16.16;48.85;101185.38;5053755;28;20040;-78
2021/05/09 00:12:30;;;;;;;6.70;1.70;;;;;;;16.14;48.97;101190.44;5044627;28;20056;-78
2021/05/09 00:15:20;;;;;;;1.95;0.70;;;;;;;16.12;48.74;101196.25;5040682;28;20056;-80
2021/05/09 00:18:05;;;;;;;2.38;1.30;;;;;;;15.96;49.10;101178.84;5053426;28;20052;-78
2021/05/09 00:20:50;;;;;;;1.50;0.98;;;;;;;15.93;48.84;101176.78;5050848;28;20064;-78
2021/05/09 00:23:54;;;;;;;1.58;1.05;;;;;;;15.90;48.73;101180.19;5048250;28;20047;-79
2021/05/09 00:30:03;;;;;;;2.17;0.90;;;;;;;15.85;49.22;101183.16;5072485;28;20420;-78
2021/05/09 00:32:48;;;;;;;0.80;0.80;;;;;;;15.81;49.29;101183.03;5039537;28;20067;-79
2021/05/09 00:35:33;;;;;;;7.75;0.75;;;;;;;15.86;49.60;101182.03;5050005;28;20051;-80
2021/05/09 00:38:19;;;;;;;2.60;0.93;;;;;;;15.93;49.66;101173.25;5041027;28;20052;-80
2021/05/09 00:41:04;;;;;;;1.23;0.90;;;;;;;15.89;49.70;101173.13;5056242;28;20063;-80
2021/05/09 00:43:49;;;;;;;;;;;;;;;15.90;49.64;101180.19;5046108;28;20052;-80
2021/05/09 00:46:52;;;;;;;9.20;1.40;;;;;;;15.88;49.92;101176.22;5048702;28;19917;-79
2021/05/09 00:49:39;;;;;;;7.05;1.23;;;;;;;15.87;49.74;101175.41;5055603;28;20044;-79
2021/05/09 00:52:26;;;;;;;1.92;1.00;;;;;;;15.75;50.19;101172.63;5038549;28;20039;-79
2021/05/09 00:55:48;;;;;;;3.92;0.85;;;;;;;15.69;50.55;101169.31;5052165;28;20040;-80
2021/05/09 00:58:35;;;;;;;4.90;1.30;;;;;;;15.66;50.48;101169.16;5037466;28;20056;-80
2021/05/09 01:01:23;;;;;;;4.78;1.10;;;;;;;15.68;50.58;101164.16;5055768;28;20056;-79
2021/05/09 01:04:12;;;;;;;2.70;1.08;;;;;;;15.72;50.63;101165.09;5050701;28;20052;-80
2021/05/09 01:06:57;;;;;;;1.48;1.15;;;;;;;15.59;51.07;101157.97;5043159;28;20052;-79
2021/05/09 01:09:42;;;;;;;3.22;1.30;;;;;;;15.40;51.58;101155.69;5040047;28;20068;-80
2021/05/09 01:12:45;;;;;;;2.22;0.85;;;;;;;15.38;51.63;101147.81;5053584;28;20048;-80
2021/05/09 01:15:33;;;;;;;1.85;1.10;;;;;;;15.65;50.98;101157.41;5056090;28;20090;-80
2021/05/09 01:18:19;;;;;;;5.22;1.67;;;;;;;15.57;51.02;101143.78;5033413;28;20052;-80
2021/05/09 01:21:04;;;;;;;2.60;1.05;;;;;;;15.57;51.25;101154.75;5055099;28;20044;-80
2021/05/09 01:23:50;;;;;;;2.40;1.23;;;;;;;15.55;51.42;101146.06;5061377;28;20052;-80
2021/05/09 01:26:54;;;;;;;5.60;1.98;;;;;;;15.53;51.69;101142.88;5051415;28;20044;-80
2021/05/09 01:29:58;;;;;;;3.17;1.65;;;;;;;15.51;51.91;101148.69;5058075;28;20043;-81
2021/05/09 01:32:43;;;;;;;7.07;1.10;;;;;;;15.53;51.64;101148.34;5061574;28;20404;-79
2021/05/09 01:35:48;;;;;;;3.08;1.25;;;;;;;15.51;52.16;101145.09;5058692;28;20420;-80
2021/05/09 01:38:33;;;;;;;1.67;1.17;;;;;;;15.41;52.64;101147.13;5039909;28;20412;-80
2021/05/09 01:41:18;;;;;;;;;;;;;;;15.46;52.18;101148.88;5058662;28;20052;-79
2021/05/09 01:44:21;;;;;;;4.60;1.25;;;;;;;15.43;52.18;101155.03;5055658;28;20284;-79
2021/05/09 01:47:06;;;;;;;1.80;1.08;;;;;;;15.43;52.08;101151.47;5059266;28;20048;-80
2021/05/09 01:49:51;;;;;;;;;;;;;;;15.30;52.91;101148.69;5040656;28;20512;-79
2021/05/09 01:52:37;;;;;;;2.30;1.20;;;;;;;15.34;52.60;101146.88;5021014;28;19913;-79
2021/05/09 01:55:23;;;;;;;;;;;;;;;15.35;52.79;101147.66;5058970;28;20409;-79
2021/05/09 01:58:25;;;;;;;4.38;1.33;;;;;;;15.40;52.82;101140.03;5028628;28;20180;-79
2021/05/09 02:01:50;;;;;;;3.33;1.17;;;;;;;15.38;52.76;101142.34;5059376;28;20056;-80
2021/05/09 02:05:02;;;;;;;6.72;1.23;;;;;;;15.32;53.01;101135.47;5035665;28;20056;-80
2021/05/09 02:07:47;;;;;;;5.25;1.73;;;;;;;15.33;52.95;101134.31;5035685;28;20053;-80
2021/05/09 02:10:32;;;;;;;1.55;0.68;;;;;;;15.33;53.06;101137.06;5034161;28;20044;-79
2021/05/09 02:13:17;;;;;;;3.03;0.77;;;;;;;15.31;53.13;101131.09;5039646;28;20045;-81
2021/05/09 02:16:12;;;;;;;2.47;1.10;;;;;;;15.32;52.87;101127.25;5034873;28;20048;-79
2021/05/09 02:19:16;;;;;;;4.70;1.17;;;;;;;15.23;53.62;101134.75;5048208;28;20433;-80
2021/05/09 02:25:10;;;;;;;6.60;1.30;;;;;;;15.07;54.31;101136.50;5044458;28;20068;-81
2021/05/09 02:27:56;;;;;;;3.65;1.38;;;;;;;15.01;54.98;101132.34;5038579;28;20056;-80
2021/05/09 02:30:42;;;;;;;3.38;1.30;;;;;;;15.04;55.03;101148.09;5052754;28;20047;-79
2021/05/09 02:34:04;;;;;;;4.70;1.20;;;;;;;15.02;55.67;101139.44;5048025;28;20115;-80
2021/05/09 02:36:49;;;;;;;4.15;1.40;;;;;;;15.03;54.95;101130.09;5052647;28;20040;-80
2021/05/09 02:39:35;;;;;;;6.25;1.60;;;;;;;15.02;55.14;101133.94;5049654;28;20095;-80
2021/05/09 02:42:21;;;;;;;5.00;1.20;;;;;;;14.99;55.09;101135.41;5047267;28;20048;-80
2021/05/09 02:45:07;;;;;;;4.63;1.40;;;;;;;14.97;55.13;101134.16;5035725;28;20060;-79
2021/05/09 02:47:52;;;;;;;5.25;1.25;;;;;;;14.88;55.51;101128.72;5052079;28;20048;-79
2021/05/09 02:50:40;;;;;;;8.23;1.02;;;;;;;14.81;55.75;101135.88;5046432;28;20036;-80
2021/05/09 02:53:25;;;;;;;2.42;1.08;;;;;;;14.76;55.54;101123.19;5035290;28;20044;-79
2021/05/09 02:56:29;;;;;;;4.93;1.50;;;;;;;14.79;55.87;101129.94;5046391;28;20064;-79
2021/05/09 02:59:14;;;;;;;;;;;;;;;14.75;55.99;101131.72;5049962;28;20068;-80
2021/05/09 03:01:59;;;;;;;9.57;4.95;;;;;;;14.51;56.14;101127.72;5053071;28;20389;-82
2021/05/09 03:04:45;;;;;;;6.80;4.63;;;;;;;13.55;59.63;101125.66;5041365;28;20052;-85
2021/05/09 03:07:30;;;;;;;;;;;;;;;13.18;61.34;101134.53;5045369;28;20044;-84
2021/05/09 03:10:15;;;;;;;10.75;4.00;;;;;;;12.92;62.11;101130.97;5049577;28;19921;-84
2021/05/09 03:13:00;;;;;;;;;;;;;;;12.79;62.58;101136.28;5045751;28;20033;-85
2021/05/09 03:15:45;;;;;;;7.13;2.58;;;;;;;12.66;63.24;101120.84;5032786;28;19912;-84
2021/05/09 03:18:30;;;;;;;;;;;;;;;12.47;63.96;101128.50;5044459;28;20061;-85
2021/05/09 03:21:15;;;;;;;2.35;1.40;;;;;;;12.43;64.31;101136.53;5029164;28;19916;-84
2021/05/09 03:23:59;;;;;;;5.88;1.67;;;;;;;12.47;64.10;101131.25;5043789;28;20045;-84
2021/05/09 03:26:45;;;;;;;4.03;2.28;;;;;;;12.41;64.23;101140.69;5050565;28;20115;-85
2021/05/09 03:29:29;;;;;;;3.50;1.23;;;;;;;12.38;65.06;101144.06;5047095;28;20044;-84
2021/05/09 03:32:14;;;;;;;1.38;0.93;;;;;;;12.40;64.56;101147.25;5053530;28;20087;-84
2021/05/09 03:34:59;;;;;;;2.50;1.08;;;;;;;12.53;64.17;101138.16;5054194;28;20401;-83
2021/05/09 03:37:44;;;;;;;;;;;;;;;12.55;64.65;101146.81;5048566;28;20536;-84
2021/05/09 03:40:29;;;;;;;4.70;1.70;;;;;;;12.36;64.96;101138.09;5052010;28;19913;-84
2021/05/09 03:43:14;;;;;;;2.00;1.02;;;;;;;12.41;64.68;101141.50;5050542;28;20406;-84
2021/05/09 03:45:59;;;;;;;6.88;1.33;;;;;;;12.44;64.58;101146.31;5050905;28;20056;-84
2021/05/09 03:48:44;;;;;;;1.73;1.25;;;;;;;12.41;64.53;101152.41;5050161;28;20512;-84
2021/05/09 03:51:29;;;;;;;;;;;;;;;12.51;64.59;101145.84;5054478;28;20044;-84
2021/05/09 03:54:13;;;;;;;5.07;1.95;;;;;;;12.24;65.16;101155.06;5056272;28;19912;-85
2021/05/09 03:57:17;;;;;;;6.20;1.20;;;;;;;12.21;65.54;101158.44;5072217;28;20055;-84
2021/05/09 04:00:04;;;;;;;4.05;1.80;;;;;;;12.18;65.80;101152.81;5060825;28;20090;-84
2021/05/09 04:03:17;;;;;;;4.60;1.63;;;;;;;12.15;65.90;101146.06;5047558;28;20124;-85
2021/05/09 04:06:21;;;;;;;3.13;1.75;;;;;;;11.99;66.57;101150.31;5052090;28;20052;-84
2021/05/09 04:09:06;;;;;;;7.07;2.05;;;;;;;11.93;66.89;101149.66;5060275;28;20056;-84
2021/05/09 04:11:51;;;;;;;7.47;1.63;;;;;;;12.16;66.31;101155.84;5059702;28;20040;-85
2021/05/09 04:14:40;;;;;;;8.48;2.15;;;;;;;12.24;65.80;101162.47;5054484;28;20413;-85
2021/05/09 04:17:25;;;;;;;8.23;2.88;;;;;;;12.18;66.39;101163.72;5052387;28;20056;-85
2021/05/09 04:20:11;;;;;;;4.68;2.85;;;;;;;12.33;65.78;101145.00;5057634;28;20519;-80
2021/05/09 04:23:09;;;;;;;5.95;3.15;;;;;;;12.33;65.96;101157.84;5052749;28;20048;-79
2021/05/09 04:26:12;;;;;;;10.40;2.85;;;;;;;12.52;65.38;101161.09;5046146;28;20107;-80
2021/05/09 04:28:57;;;;;;;5.65;2.22;;;;;;;12.57;65.18;101166.41;5034332;28;20052;-79
2021/05/09 04:31:42;;;;;;;4.65;2.45;;;;;;;12.56;65.24;101158.53;5057038;28;20043;-79
2021/05/09 04:34:27;;;;;;;7.90;2.80;;;;;;;12.55;65.67;101160.44;5047195;28;20520;-80
2021/05/09 04:37:12;;;;;;;6.20;2.20;;;;;;;12.56;65.78;101162.06;5053049;28;20071;-79
2021/05/09 04:39:58;;;;;;;7.72;2.78;;;;;;;12.74;65.43;101166.47;5056796;28;20065;-79
2021/05/09 04:42:43;;;;;;;4.35;1.77;;;;;;;12.83;65.42;101170.00;5060184;28;20441;-79
2021/05/09 04:45:29;;;;;;;7.55;2.22;;;;;;;13.00;65.07;101171.16;5045771;28;20049;-79
2021/05/09 04:48:32;;;;;;;8.25;2.40;;;;;;;12.88;65.68;101170.97;5050409;28;20048;-79
2021/05/09 04:51:18;;;;;;;9.15;3.28;;;;;;;13.03;65.57;101168.56;5038286;28;20048;-78
2021/05/09 04:54:03;;;;;;;33.67;14.05;;;;;;;13.19;65.16;101171.66;5051505;28;20412;-78
2021/05/09 04:57:07;;;;;;;36.88;15.32;;;;;;;13.19;65.43;101174.38;5039764;28;20418;-80
2021/05/09 04:59:52;;;;;;;8.70;3.35;;;;;;;13.30;65.26;101172.94;5055446;28;20041;-79
2021/05/09 05:02:37;;;;;;;4.28;2.13;;;;;;;13.43;64.75;101168.44;5043762;28;20044;-78
2021/05/09 05:05:22;;;;;;;3.72;2.10;;;;;;;13.60;64.76;101182.06;5056487;28;20459;-78
2021/05/09 05:08:07;;;;;;;5.30;1.88;;;;;;;13.66;64.50;101180.78;5054759;28;20055;-80
2021/05/09 05:10:52;;;;;;;5.53;1.73;;;;;;;13.72;64.16;101171.25;5056866;28;20532;-78
2021/05/09 05:13:37;;;;;;;4.22;1.30;;;;;;;13.91;64.35;101182.66;5042995;28;20052;-79
2021/05/09 05:16:22;;;;;;;9.20;1.73;;;;;;;13.91;64.43;101187.31;5042335;28;20052;-79
2021/05/09 05:19:07;;;;;;;2.17;1.25;;;;;;;14.10;63.85;101180.34;5057447;28;20055;-78
2021/05/09 05:21:52;;;;;;;;;;;;;;;14.36;63.10;101183.00;5059904;28;20421;-78
2021/05/09 05:24:37;;;;;;;2.45;1.35;;;;;;;14.45;63.18;101183.75;5054469;28;19920;-78
2021/05/09 05:27:42;;;;;;;3.13;1.55;;;;;;;14.64;63.16;101179.78;5055407;28;20445;-79
2021/05/09 05:30:27;;;;;;;3.67;1.65;;;;;;;14.82;62.95;101186.78;5055358;28;20040;-78
2021/05/09 05:33:32;;;;;;;8.40;2.95;;;;;;;14.86;62.31;101188.50;5050933;28;20048;-77
2021/05/09 05:36:17;;;;;;;7.40;1.65;;;;;;;15.19;61.58;101185.03;5055778;28;20048;-79
2021/05/09 05:39:02;;;;;;;4.32;1.77;;;;;;;15.21;60.80;101182.78;5038360;28;20053;-78
2021/05/09 05:41:48;;;;;;;5.32;1.70;;;;;;;15.39;60.27;101193.25;5051887;28;20052;-79
2021/05/09 05:44:51;;;;;;;7.95;2.78;;;;;;;15.52;59.56;101191.41;5057142;28;20052;-80
2021/05/09 05:47:54;;;;;;;4.70;1.67;;;;;;;15.69;58.87;101176.75;5053890;28;20056;-79
2021/05/09 05:50:39;;;;;;;4.80;2.08;;;;;;;15.90;57.83;101184.91;5056764;28;20056;-80
2021/05/09 05:53:26;;;;;;;;;;;;;;;16.04;56.45;101179.91;5044116;28;20049;-79
2021/05/09 05:56:11;;;;;;;10.02;1.60;;;;;;;16.19;56.05;101185.53;5027119;28;20285;-80
2021/05/09 05:58:56;;;;;;;;;;;;;;;16.73;55.18;101188.06;5036086;28;20052;-76
2021/05/09 06:01:41;;;;;;;4.90;1.40;;;;;;;17.06;53.84;101174.16;5039556;28;19917;-74
2021/05/09 06:04:26;;;;;;;19.20;3.30;;;;;;;17.26;52.27;101175.13;5030167;28;20276;-75
2021/05/09 06:07:12;;;;;;;2.70;1.20;;;;;;;17.52;51.25;101178.25;5038238;28;20057;-76
2021/05/09 06:09:57;;;;;;;4.78;1.30;;;;;;;17.71;50.60;101175.66;5037887;28;20045;-76
2021/05/09 06:12:42;;;;;;;;;;;;;;;17.85;49.73;101181.53;5074937;23;20048;-75
2021/05/09 06:15:28;;;;;;;30.52;5.10;;;;;;;18.10;50.04;101189.63;5056591;28;19916;-76
2021/05/09 06:21:36;;;;;;;6.47;1.60;;;;;;;18.73;48.29;101195.94;5041762;28;20400;-76
2021/05/09 06:24:21;;;;;;;3.58;1.08;;;;;;;19.00;46.44;101199.69;5058636;28;20073;-76
2021/05/09 06:27:06;;;;;;;8.73;1.52;;;;;;;19.15;45.58;101187.81;5070817;28;20055;-77
2021/05/09 06:29:51;;;;;;;9.27;2.90;;;;;;;19.60;43.80;101188.00;5058315;28;20036;-77
2021/05/09 06:32:36;;;;;;;2.95;1.27;;;;;;;19.89;42.89;101188.53;5055434;28;20056;-77
2021/05/09 06:35:21;;;;;;;;;;;;;;;19.32;41.94;101190.16;5066932;28;20044;-75
2021/05/09 06:38:09;;;;;;;33.55;2.25;;;;;;;19.71;40.87;101196.47;5059086;28;19913;-76
2021/05/09 06:40:55;;;;;;;3.58;0.85;;;;;;;20.13;39.47;101198.41;5051658;28;20048;-76
2021/05/09 06:43:40;;;;;;;3.88;0.93;;;;;;;20.54;38.27;101200.31;5032769;28;20037;-75
2021/05/09 06:46:25;;;;;;;;;;;;;;;20.33;36.62;101200.78;5054955;28;20067;-75
2021/05/09 06:49:09;;;;;;;3.85;0.60;;;;;;;21.05;36.36;101195.16;5053932;28;19924;-75
2021/05/09 06:51:55;;;;;;;;;;;;;;;21.69;34.93;101204.25;5059074;28;20540;-79
2021/05/09 06:54:39;;;;;;;15.95;3.28;;;;;;;23.33;31.80;101207.19;5059753;28;19912;-76
2021/05/09 06:57:24;;;;;;;;;;;;;;;24.03;33.60;101214.97;5053410;28;20433;-78
2021/05/09 07:00:10;;;;;;;12.10;2.03;;;;;;;25.52;31.38;101221.19;5061688;28;19912;-75
2021/05/09 07:02:55;;;;;;;2.95;0.52;;;;;;;25.55;29.63;101219.59;5059217;28;20048;-77
2021/05/09 07:05:40;;;;;;;14.57;1.50;;;;;;;25.89;29.58;101226.19;5054153;28;20051;-75
2021/05/09 07:08:25;;;;;;;6.25;1.38;;;;;;;26.25;28.29;101221.22;5051453;28;20044;-77
2021/05/09 07:11:10;;;;;;;5.80;0.70;;;;;;;24.93;29.43;101214.63;5056013;28;20044;-79
2021/05/09 07:13:55;;;;;;;3.67;0.65;;;;;;;24.62;28.60;101219.00;5053404;28;20044;-77
2021/05/09 07:16:59;;;;;;;4.35;0.55;;;;;;;25.23;28.41;101221.69;5073139;28;20048;-76
2021/05/09 07:19:45;;;;;;;1.65;0.68;;;;;;;25.02;27.29;101208.63;5051266;28;20062;-78
2021/05/09 07:22:35;;;;;;;1.13;0.40;;;;;;;24.51;28.13;101214.66;5045450;28;20044;-78
2021/05/09 07:25:21;;;;;;;3.80;1.00;;;;;;;25.95;26.79;101215.41;5060361;28;20091;-80
2021/05/09 07:28:11;;;;;;;3.42;0.55;;;;;;;25.50;27.28;101212.41;5050018;28;20056;-76
2021/05/09 07:30:57;;;;;;;1.50;0.80;;;;;;;26.55;26.39;101211.38;5053072;28;20044;-78
2021/05/09 07:33:42;;;;;;;7.05;0.60;;;;;;;27.40;25.50;101222.47;5052273;28;20056;-77
2021/05/09 07:36:28;;;;;;;6.93;0.60;;;;;;;27.87;24.41;101220.66;5061107;28;20051;-77
2021/05/09 07:39:33;;;;;;;1.85;0.60;;;;;;;27.79;24.34;101213.59;5056930;28;20048;-76
2021/05/09 07:42:17;;;;;;;3.55;0.90;;;;;;;28.82;22.83;101217.56;5053088;28;20112;-78
2021/05/09 07:45:22;;;;;;;6.13;0.60;;;;;;;29.39;21.62;101210.88;5058871;28;20124;-81
2021/05/09 07:48:09;;;;;;;2.83;0.57;;;;;;;30.17;20.83;101216.31;5061348;28;20052;-79
2021/05/09 07:50:54;;;;;;;1.55;0.82;;;;;;;30.39;20.66;101216.59;5056488;28;20052;-81
2021/05/09 07:53:39;;;;;;;9.07;1.52;;;;;;;31.37;19.75;101223.59;5047114;28;20528;-80
2021/05/09 07:56:24;;;;;;;3.30;0.70;;;;;;;30.61;20.06;101211.25;5042351;28;20052;-80
2021/05/09 07:59:09;;;;;;;5.28;0.70;;;;;;;32.43;18.23;101222.34;5046700;28;20035;-79
2021/05/09 08:01:55;;;;;;;4.72;1.10;;;;;;;34.26;16.55;101221.59;5054081;28;20425;-80
2021/05/09 08:04:40;;;;;;;2.60;1.20;;;;;;;32.90;17.33;101219.53;5060167;28;20052;-80
2021/05/09 08:07:25;;;;;;;1.23;0.60;;;;;;;33.85;16.49;101220.81;5068538;28;20036;-80
2021/05/09 08:10:10;;;;;;;1.80;0.60;;;;;;;32.52;17.51;101224.44;5063097;28;20040;-80
2021/05/09 08:12:55;;;;;;;1.65;0.60;;;;;;;31.79;18.23;101213.13;5058378;28;20044;-80
2021/05/09 08:15:59;;;;;;;7.80;1.13;;;;;;;33.05;17.07;101214.94;5055657;28;20108;-80
2021/05/09 08:18:43;;;;;;;4.82;1.70;;;;;;;34.41;16.11;101214.09;5056929;28;20071;-80
2021/05/09 08:21:28;;;;;;;8.48;0.95;;;;;;;32.73;17.32;101215.28;5060058;28;20052;-80
2021/05/09 08:24:13;;;;;;;1.90;0.50;;;;;;;35.14;15.38;101205.69;5053408;28;20413;-80
2021/05/09 08:26:59;;;;;;;54.13;3.78;;;;;;;32.80;17.49;101197.34;5056780;28;20052;-78
2021/05/09 08:29:44;;;;;;;1.77;0.60;;;;;;;34.51;16.19;101203.59;5060510;28;20052;-78
2021/05/09 08:32:29;;;;;;;1.88;0.63;;;;;;;33.09;16.82;101197.91;5058988;28;20044;-79
2021/05/09 08:35:15;;;;;;;4.85;1.13;;;;;;;32.87;17.18;101197.09;5057468;28;20412;-78
2021/05/09 08:37:59;;;;;;;2.17;0.50;;;;;;;33.46;16.57;101193.31;5061257;28;20052;-80
2021/05/09 08:40:45;;;;;;;4.45;0.38;;;;;;;32.37;16.93;101203.66;5059228;28;20052;-78
2021/05/09 08:43:30;;;;;;;3.50;0.68;;;;;;;33.26;16.44;101192.88;5056384;28;20608;-81
2021/05/09 08:46:19;;;;;;;2.22;0.50;;;;;;;33.37;17.17;101187.63;5042580;28;20060;-78
2021/05/09 08:49:04;;;;;;;1.63;0.90;;;;;;;33.52;16.20;101188.66;5038051;28;20048;-81
2021/05/09 08:51:50;;;;;;;5.68;0.95;;;;;;;34.79;15.07;101198.78;5036625;28;20052;-81
2021/05/09 08:54:36;;;;;;;16.85;0.70;;;;;;;35.07;14.43;101191.84;5054811;28;20048;-80
2021/05/09 08:57:21;;;;;;;1.52;0.60;;;;;;;34.94;14.96;101191.25;5059143;28;20051;-80
2021/05/09 09:00:07;;;;;;;3.50;0.80;;;;;;;37.16;13.19;101192.84;5056183;28;20050;-81
2021/05/09 09:05:55;;;;;;;5.55;0.70;;;;;;;35.18;14.26;101186.53;5058749;28;20048;-78
2021/05/09 09:12:00;;;;;;;3.25;0.60;;;;;;;33.82;15.40;101173.78;5058942;28;20052;-79
2021/05/09 09:14:52;;;;;;;3.45;1.20;;;;;;;33.88;15.52;101173.94;5057027;28;20043;-78
2021/05/09 09:17:38;;;;;;;6.20;0.73;;;;;;;35.18;14.47;101170.34;5061299;28;20043;-78
2021/05/09 09:20:23;;;;;;;4.43;0.93;;;;;;;38.11;12.33;101178.16;5058757;28;20047;-79
2021/05/09 09:23:10;;;;;;;1.52;0.65;;;;;;;37.64;12.04;101179.25;5056229;28;20052;-79
2021/05/09 09:25:57;;;;;;;2.33;0.68;;;;;;;35.78;13.84;101177.25;5073597;28;20051;-78
2021/05/09 09:28:41;;;;;;;4.78;0.82;;;;;;;35.79;14.10;101175.97;5059221;28;20059;-79
2021/05/09 09:31:41;;;;;;;2.00;0.60;;;;;;;34.91;14.86;101169.56;5056956;28;20048;-79
2021/05/09 09:34:39;;;;;;;2.75;0.70;;;;;;;35.21;14.21;101165.78;5059777;28;20044;-79
2021/05/09 09:40:34;;;;;;;6.35;1.35;;;;;;;38.21;12.42;101167.44;5061079;28;20040;-79
2021/05/09 09:43:19;;;;;;;9.10;1.00;;;;;;;37.07;14.04;101167.38;5059637;28;20048;-80
2021/05/09 09:46:05;;;;;;;5.93;0.75;;;;;;;38.91;11.82;101168.09;5061425;28;20056;-79
2021/05/09 09:48:49;;;;;;;4.80;1.33;;;;;;;31.43;18.75;101148.72;5063958;28;20044;-79
2021/05/09 09:52:02;;;;;;;2.13;1.00;;;;;;;30.23;19.96;101146.44;5063741;28;20052;-79
2021/05/09 09:54:48;;;;;;;3.08;1.00;;;;;;;37.56;13.27;101159.00;5060287;28;20052;-79
2021/05/09 09:57:34;;;;;;;2.30;0.88;;;;;;;37.25;13.42;101158.69;5043618;28;20048;-79
2021/05/09 10:00:19;;;;;;;7.78;0.90;;;;;;;38.31;12.71;101154.66;5041411;28;20044;-79
2021/05/09 10:06:28;;;;;;;2.85;0.90;;;;;;;37.48;12.79;101154.19;5048951;28;20051;-79
2021/05/09 10:09:13;;;;;;;3.60;1.10;;;;;;;34.15;15.18;101145.78;5058762;28;20524;-79
2021/05/09 10:12:16;;;;;;;9.10;0.75;;;;;;;34.71;15.27;101153.09;5063430;28;20068;-80
2021/05/09 10:15:20;;;;;;;1.17;0.82;;;;;;;34.24;15.94;101150.66;5056111;28;20052;-80
2021/05/09 10:18:06;;;;;;;3.08;1.02;;;;;;;36.86;13.91;101149.47;5064427;28;20531;-79
2021/05/09 10:21:10;;;;;;;3.15;0.77;;;;;;;34.72;15.68;101138.50;5058065;28;20048;-80
2021/05/09 10:24:17;;;;;;;5.72;0.60;;;;;;;37.51;12.93;101144.69;5039836;28;20060;-78
2021/05/09 10:27:10;;;;;;;2.58;0.60;;;;;;;37.56;13.16;101136.28;5053895;28;20527;-79
2021/05/09 10:30:14;;;;;;;2.15;0.63;;;;;;;38.41;12.44;101141.84;5053607;28;20524;-77
2021/05/09 10:32:59;;;;;;;9.77;1.13;;;;;;;36.71;13.61;101148.66;5047348;28;20040;-78
2021/05/09 10:35:52;;;;;;;7.30;0.75;;;;;;;35.40;14.79;101136.19;5058215;28;20051;-78
2021/05/09 10:39:14;;;;;;;5.25;1.02;;;;;;;36.10;14.88;101133.19;5063400;28;20048;-78
2021/05/09 10:41:59;;;;;;;2.88;0.70;;;;;;;39.99;11.00;101138.69;5056119;28;20048;-78
2021/05/09 10:44:48;;;;;;;7.90;1.20;;;;;;;37.46;12.77;101131.19;5069761;28;20047;-78
2021/05/09 10:47:33;;;;;;;1.88;0.65;;;;;;;36.03;14.50;101123.00;5052249;28;20051;-78
2021/05/09 10:50:24;;;;;;;5.30;1.20;;;;;;;37.18;13.15;101114.47;5058404;28;20040;-78
2021/05/09 10:53:30;;;;;;;7.20;1.00;;;;;;;38.87;12.08;101113.44;5052647;28;20044;-78
2021/05/09 10:59:18;;;;;;;2.80;1.00;;;;;;;38.79;11.84;101115.16;5073764;28;20539;-79
2021/05/09 11:02:07;;;;;;;6.35;0.90;;;;;;;38.18;12.41;101111.59;5057591;28;20048;-78
2021/05/09 11:04:52;;;;;;;3.38;0.85;;;;;;;39.33;11.58;101104.81;5058458;28;20520;-78
2021/05/09 11:07:56;;;;;;;3.42;1.38;;;;;;;38.56;11.35;101102.78;5052684;28;20408;-78
2021/05/09 11:10:41;;;;;;;4.97;0.95;;;;;;;43.44;8.98;101120.19;5040325;28;20048;-78
2021/05/09 11:13:26;;;;;;;4.20;0.73;;;;;;;39.95;10.58;101103.16;5036934;28;20040;-78
2021/05/09 11:16:18;;;;;;;3.00;0.90;;;;;;;39.20;11.33;101104.44;5058243;28;20052;-78
2021/05/09 11:19:14;;;;;;;6.03;0.75;;;;;;;37.56;12.63;101096.53;5056542;28;20048;-78
2021/05/09 11:21:59;;;;;;;2.75;1.00;;;;;;;42.62;8.83;101097.38;5046606;28;20051;-78
2021/05/09 11:27:47;;;;;;;;;;;;;;;45.22;7.75;101106.38;5056039;28;20056;-78
2021/05/09 11:30:36;;;;;;;2.65;0.80;;;;;;;42.12;9.25;101097.63;5052954;28;19912;-78
2021/05/09 11:33:52;;;;;;;3.90;1.17;;;;;;;41.46;9.76;101101.44;5056601;28;20063;-77
2021/05/09 11:36:57;;;;;;;4.47;1.00;;;;;;;40.79;9.99;101101.44;5053140;28;20056;-78
2021/05/09 11:39:42;;;;;;;3.05;0.70;;;;;;;41.84;9.30;101089.16;5052952;28;20562;-79
2021/05/09 11:42:28;;;;;;;6.13;1.33;;;;;;;42.00;9.58;101081.84;5056727;28;20048;-79
2021/05/09 11:45:13;;;;;;;3.03;0.95;;;;;;;42.66;8.76;101080.72;5058524;28;20052;-80
2021/05/09 11:51:02;;;;;;;2.83;0.88;;;;;;;40.44;10.14;101064.75;5053376;28;20048;-79
2021/05/09 11:54:09;;;;;;;2.92;1.08;;;;;;;41.31;9.93;101073.16;5052142;28;20048;-78
2021/05/09 11:57:05;;;;;;;4.07;1.00;;;;;;;39.20;11.82;101061.75;5053880;28;20055;-79
2021/05/09 12:06:21;;;;;;;7.63;0.85;;;;;;;41.48;9.86;101053.16;5053215;28;20047;-79
2021/05/09 12:09:06;;;;;;;4.10;0.75;;;;;;;41.10;10.01;101046.97;5055759;28;20043;-79
2021/05/09 12:12:17;;;;;;;4.88;0.90;;;;;;;40.53;9.86;101042.50;5049477;28;20052;-78
2021/05/09 12:15:13;;;;;;;3.15;0.80;;;;;;;40.86;9.63;101041.75;5052931;28;20405;-79
2021/05/09 12:17:58;;;;;;;4.78;0.80;;;;;;;40.10;11.13;101041.84;5038644;28;20056;-79
2021/05/09 12:21:08;;;;;;;1.83;0.70;;;;;;;39.78;11.04;101036.78;5059581;22;20060;-80
2021/05/09 12:24:02;;;;;;;4.90;1.27;;;;;;;41.48;9.94;101036.03;5036978;28;20441;-81
2021/05/09 12:27:14;;;;;;;3.05;0.90;;;;;;;42.09;9.82;101033.72;5052520;28;20044;-82
2021/05/09 12:30:03;;;;;;;8.48;1.45;;;;;;;41.10;10.53;101026.19;5038987;28;20424;-82
2021/05/09 12:32:48;;;;;;;11.00;1.02;;;;;;;40.48;10.98;101034.72;5068819;28;20036;-80
2021/05/09 12:35:59;;;;;;;4.22;0.88;;;;;;;34.99;15.77;101016.13;5078606;28;20499;-80
2021/05/09 12:38:44;;;;;;;4.85;1.05;;;;;;;39.09;12.42;101021.84;5075000;28;20518;-80
2021/05/09 12:41:30;;;;;;;7.43;1.20;;;;;;;38.73;12.54;101012.72;5037530;28;20053;-81
2021/05/09 12:44:22;;;;;;;2.17;1.13;;;;;;;38.93;12.48;101015.50;5050020;28;20055;-79
2021/05/09 12:47:20;;;;;;;4.57;1.45;;;;;;;38.73;12.42;101007.03;5055064;28;20048;-78
2021/05/09 12:50:05;;;;;;;7.32;0.93;;;;;;;39.54;11.98;101008.69;5061779;28;20040;-80
2021/05/09 12:52:50;;;;;;;6.63;0.82;;;;;;;41.04;10.97;101014.03;5055175;28;20048;-90
2021/05/09 12:55:35;;;;;;;6.95;1.10;;;;;;;38.54;12.90;100999.38;5053174;28;20175;-82
2021/05/09 13:01:24;;;;;;;3.28;0.80;;;;;;;38.56;12.60;100996.78;5055335;28;20048;-83
2021/05/09 13:04:43;;;;;;;3.33;1.10;;;;;;;38.67;12.75;100992.00;5053306;28;20102;-86
2021/05/09 13:07:29;;;;;;;6.93;1.15;;;;;;;39.15;12.12;100991.34;5054877;28;20527;-84
2021/05/09 13:10:17;;;;;;;4.15;1.15;;;;;;;35.87;14.72;100981.84;5061483;28;20055;-85
2021/05/09 13:13:06;;;;;;;5.68;1.65;;;;;;;35.03;15.68;100976.34;5061081;28;20040;-82
2021/05/09 13:15:51;;;;;;;3.47;0.88;;;;;;;37.35;13.81;100975.72;5058972;28;20507;-85
2021/05/09 13:18:36;;;;;;;6.85;1.20;;;;;;;38.32;12.86;100980.00;5058739;28;20052;-82
2021/05/09 13:21:22;;;;;;;6.95;1.05;;;;;;;38.33;12.81;100973.84;5066005;28;20448;-83
2021/05/09 13:24:08;;;;;;;1.60;0.70;;;;;;;36.19;14.58;100971.69;5061410;28;20052;-84
2021/05/09 13:26:53;;;;;;;6.18;1.10;;;;;;;36.40;14.73;100970.53;5064779;28;20527;-84
2021/05/09 13:29:56;;;;;;;1.52;0.90;;;;;;;37.37;13.58;100964.66;5045710;28;20052;-85
2021/05/09 13:32:41;;;;;;;6.28;1.35;;;;;;;37.06;14.06;100958.75;5072060;28;20057;-84
2021/05/09 13:35:27;;;;;;;7.25;1.92;;;;;;;39.24;12.18;100968.38;5048179;28;20520;-84
2021/05/09 13:38:12;;;;;;;11.05;1.58;;;;;;;36.46;14.23;100959.31;5056539;28;20056;-84
2021/05/09 13:40:57;;;;;;;8.02;1.30;;;;;;;34.10;17.17;100953.63;5065043;28;20056;-83
2021/05/09 13:44:00;;;;;;;3.10;1.05;;;;;;;34.50;16.70;100950.59;5064785;28;20060;-83
2021/05/09 13:46:50;;;;;;;3.47;1.08;;;;;;;31.36;20.42;100940.91;5060394;28;20044;-82
2021/05/09 13:49:54;;;;;;;1.63;1.33;;;;;;;29.62;22.61;100931.22;5059533;28;20536;-82
2021/05/09 13:52:57;;;;;;;4.57;1.30;;;;;;;28.95;24.04;100923.69;5062345;28;20044;-81
2021/05/09 13:55:42;;;;;;;5.93;1.30;;;;;;;28.19;25.11;100922.94;5059181;28;20408;-82